createdAt,value
2023-01-22T00:01:09.021Z,101833.47
2023-01-22T00:03:40.089Z,101831.72
2023-01-22T00:06:07.434Z,101836.97
2023-01-22T00:08:37.144Z,101834.34
2023-01-22T00:11:04.469Z,101822.97
2023-01-22T00:13:31.161Z,101829.13
2023-01-22T00:15:59.261Z,101823.00
2023-01-22T00:18:26.682Z,101832.63
2023-01-22T00:20:54.766Z,101827.38
2023-01-22T00:23:22.055Z,101829.13
2023-01-22T00:25:48.917Z,101829.09
2023-01-22T00:28:17.052Z,101827.38
2023-01-22T00:30:44.003Z,101828.25
2023-01-22T00:33:11.669Z,101832.59
2023-01-22T00:35:38.501Z,101836.09
2023-01-22T00:38:06.131Z,101834.38
2023-01-22T00:40:32.862Z,101835.25
2023-01-22T00:42:59.632Z,101832.63
2023-01-22T00:45:26.416Z,101837.00
2023-01-22T00:47:53.205Z,101831.75
2023-01-22T00:50:20.117Z,101840.44
2023-01-22T00:52:46.903Z,101830.88
2023-01-22T00:55:13.610Z,101833.50
2023-01-22T00:57:40.443Z,101830.88
2023-01-22T01:00:08.171Z,101828.25
2023-01-22T01:02:55.304Z,101814.34
2023-01-22T01:05:22.154Z,101825.69
2023-01-22T01:07:51.811Z,101835.25
2023-01-22T01:10:19.479Z,101825.69
2023-01-22T01:12:46.488Z,101833.53
2023-01-22T01:15:13.246Z,101833.53
2023-01-22T01:17:40.109Z,101830.06
2023-01-22T01:20:07.140Z,101833.53
2023-01-22T01:22:37.192Z,101830.94
2023-01-22T01:25:04.850Z,101838.78
2023-01-22T01:27:32.593Z,101841.38
2023-01-22T01:29:59.357Z,101843.16
2023-01-22T01:32:26.262Z,101844.88
2023-01-22T01:34:53.109Z,101844.00
2023-01-22T01:37:19.875Z,101843.13
2023-01-22T01:39:48.049Z,101847.50
2023-01-22T01:42:14.841Z,101842.22
2023-01-22T01:44:42.709Z,101854.47
2023-01-22T01:47:29.402Z,101854.44
2023-01-22T01:49:56.213Z,101858.81
2023-01-22T01:52:23.181Z,101857.06
2023-01-22T01:54:53.379Z,101855.34
2023-01-22T01:57:23.694Z,101860.59
2023-01-22T01:59:52.462Z,101855.34
2023-01-22T02:02:20.675Z,101857.97
2023-01-22T02:04:49.933Z,101853.59
2023-01-22T02:07:16.989Z,101857.97
2023-01-22T02:09:43.891Z,101871.06
2023-01-22T02:12:10.698Z,101876.28
2023-01-22T02:14:40.423Z,101875.41
2023-01-22T02:17:11.676Z,101871.91
2023-01-22T02:19:46.632Z,101880.66
2023-01-22T02:22:18.411Z,101877.13
2023-01-22T02:24:46.119Z,101879.75
2023-01-22T02:27:13.071Z,101888.47
2023-01-22T02:29:40.146Z,101872.81
2023-01-22T02:32:09.737Z,101883.28
2023-01-22T02:34:37.375Z,101889.38
2023-01-22T02:37:04.374Z,101886.75
2023-01-22T02:39:31.805Z,101879.78
2023-01-22T02:42:01.961Z,101884.16
2023-01-22T02:44:29.385Z,101881.53
2023-01-22T02:46:56.145Z,101883.25
2023-01-22T02:49:22.969Z,101886.75
2023-01-22T02:51:50.446Z,101874.56
2023-01-22T02:54:18.110Z,101879.78
2023-01-22T02:56:44.805Z,101875.44
2023-01-22T02:59:11.744Z,101871.09
2023-01-22T03:01:38.640Z,101858.03
2023-01-22T03:04:12.557Z,101868.47
2023-01-22T03:06:43.916Z,101872.84
2023-01-22T03:09:12.331Z,101873.72
2023-01-22T03:11:41.745Z,101873.72
2023-01-22T03:14:31.919Z,101871.09
2023-01-22T03:17:17.936Z,101874.59
2023-01-22T03:20:03.595Z,101878.03
2023-01-22T03:22:33.184Z,101883.28
2023-01-22T03:25:01.599Z,101879.81
2023-01-22T03:27:32.304Z,101878.06
2023-01-22T03:29:59.394Z,101876.34
2023-01-22T03:32:26.615Z,101882.41
2023-01-22T03:34:54.995Z,101883.28
2023-01-22T03:37:23.119Z,101885.91
2023-01-22T03:39:53.152Z,101884.16
2023-01-22T03:42:28.028Z,101895.47
2023-01-22T03:44:55.067Z,101888.50
2023-01-22T03:47:22.104Z,101894.63
2023-01-22T03:49:49.633Z,101892.88
2023-01-22T03:52:16.515Z,101894.59
2023-01-22T03:54:43.499Z,101899.81
2023-01-22T03:57:11.628Z,101902.41
2023-01-22T03:59:40.660Z,101892.00
2023-01-22T04:02:07.680Z,101906.81
2023-01-22T04:04:44.825Z,101902.44
2023-01-22T04:07:12.451Z,101899.84
2023-01-22T04:09:40.002Z,101906.81
2023-01-22T04:12:07.049Z,101909.44
2023-01-22T04:14:34.059Z,101912.91
2023-01-22T04:17:03.006Z,101899.84
2023-01-22T04:19:40.351Z,101909.41
2023-01-22T04:22:18.218Z,101901.56
2023-01-22T04:24:47.017Z,101909.44
2023-01-22T04:27:14.609Z,101909.44
2023-01-22T04:29:41.511Z,101912.91
2023-01-22T04:32:08.793Z,101906.81
2023-01-22T04:34:54.467Z,101910.31
2023-01-22T04:37:25.661Z,101906.81
2023-01-22T04:39:52.951Z,101904.22
2023-01-22T04:42:19.809Z,101922.53
2023-01-22T04:44:47.483Z,101920.78
2023-01-22T04:47:14.711Z,101919.91
2023-01-22T04:49:42.594Z,101919.00
2023-01-22T04:52:11.700Z,101916.41
2023-01-22T04:54:38.646Z,101921.63
2023-01-22T04:57:05.803Z,101925.97
2023-01-22T04:59:32.672Z,101926.00
2023-01-22T05:01:59.576Z,101932.94
2023-01-22T05:04:27.010Z,101940.78
2023-01-22T05:06:54.213Z,101935.56
2023-01-22T05:09:21.272Z,101945.16
2023-01-22T05:11:53.735Z,101946.00
2023-01-22T05:14:24.025Z,101956.50
2023-01-22T05:16:50.914Z,101952.97
2023-01-22T05:19:17.899Z,101956.44
2023-01-22T05:21:44.926Z,101953.84
2023-01-22T05:24:23.324Z,101951.22
2023-01-22T05:26:53.172Z,101960.84
2023-01-22T05:29:29.717Z,101964.31
2023-01-22T05:32:16.581Z,101968.69
2023-01-22T05:34:52.601Z,101970.44
2023-01-22T05:37:19.460Z,101972.19
2023-01-22T05:39:46.552Z,101961.69
2023-01-22T05:42:16.094Z,101979.16
2023-01-22T05:44:45.458Z,101973.06
2023-01-22T05:47:13.900Z,101989.59
2023-01-22T05:49:54.165Z,101981.75
2023-01-22T05:52:21.627Z,101984.38
2023-01-22T05:54:50.563Z,101986.06
2023-01-22T05:57:17.518Z,101982.56
2023-01-22T05:59:49.661Z,101992.22
2023-01-22T06:02:16.680Z,101995.72
2023-01-22T06:04:44.789Z,101999.22
2023-01-22T06:07:22.381Z,101997.47
2023-01-22T06:09:51.575Z,101990.47
2023-01-22T06:12:18.686Z,101999.22
2023-01-22T06:14:46.886Z,102007.94
2023-01-22T06:17:14.169Z,102014.06
2023-01-22T06:19:51.146Z,102008.81
2023-01-22T06:22:19.429Z,102014.91
2023-01-22T06:24:51.401Z,102021.00
2023-01-22T06:27:19.546Z,102014.94
2023-01-22T06:30:05.004Z,102016.66
2023-01-22T06:34:10.322Z,102009.59
2023-01-22T06:36:37.221Z,102021.84
2023-01-22T06:42:35.522Z,102029.78
2023-01-22T06:45:04.665Z,102024.53
2023-01-22T06:47:31.662Z,102020.16
2023-01-22T06:49:58.464Z,102030.63
2023-01-22T06:52:25.233Z,102030.59
2023-01-22T06:54:51.953Z,102026.25
2023-01-22T06:57:18.880Z,102028.00
2023-01-22T06:59:45.670Z,102028.91
2023-01-22T07:02:17.841Z,102029.75
2023-01-22T07:04:44.549Z,102024.53
2023-01-22T07:07:11.735Z,102028.03
2023-01-22T07:09:38.466Z,102035.91
2023-01-22T07:12:05.318Z,102041.97
2023-01-22T07:14:36.877Z,102043.72
2023-01-22T07:17:04.372Z,102051.56
2023-01-22T07:19:31.282Z,102049.84
2023-01-22T07:21:58.360Z,102055.06
2023-01-22T07:24:25.043Z,102048.97
2023-01-22T07:26:51.787Z,102048.94
2023-01-22T07:29:18.532Z,102056.81
2023-01-22T07:31:49.530Z,102054.19
2023-01-22T07:34:16.548Z,102052.44
2023-01-22T07:36:43.252Z,102063.78
2023-01-22T07:39:09.932Z,102060.28
2023-01-22T07:41:36.754Z,102055.91
2023-01-22T07:44:11.420Z,102062.06
2023-01-22T07:46:41.725Z,102062.94
2023-01-22T07:49:08.476Z,102074.25
2023-01-22T07:51:35.274Z,102072.50
2023-01-22T07:54:02.045Z,102075.13
2023-01-22T07:56:31.360Z,102087.34
2023-01-22T07:58:58.119Z,102086.47
2023-01-22T08:01:24.863Z,102095.19
2023-01-22T08:03:51.625Z,102093.44
2023-01-22T08:06:22.343Z,102102.19
2023-01-22T08:08:49.318Z,102101.31
2023-01-22T08:11:16.303Z,102105.66
2023-01-22T08:13:50.519Z,102105.66
2023-01-22T08:16:17.459Z,102107.41
2023-01-22T08:18:44.188Z,102116.13
2023-01-22T08:21:11.315Z,102116.13
2023-01-22T08:23:38.087Z,102119.63
2023-01-22T08:26:05.218Z,102113.50
2023-01-22T08:28:32.040Z,102119.59
2023-01-22T08:31:03.935Z,102110.00
2023-01-22T08:33:34.419Z,102117.88
2023-01-22T08:36:01.310Z,102123.97
2023-01-22T08:38:29.251Z,102117.88
2023-01-22T08:40:56.061Z,102130.97
2023-01-22T08:43:22.773Z,102126.56
2023-01-22T08:45:50.074Z,102131.78
2023-01-22T08:48:19.363Z,102124.81
2023-01-22T08:50:46.108Z,102132.69
2023-01-22T08:53:12.833Z,102123.94
2023-01-22T08:55:39.631Z,102130.94
2023-01-22T08:58:06.318Z,102136.19
2023-01-22T09:00:38.039Z,102142.31
2023-01-22T09:03:04.695Z,102146.66
2023-01-22T09:05:34.638Z,102143.16
2023-01-22T09:08:04.371Z,102151.00
2023-01-22T09:10:33.033Z,102167.56
2023-01-22T09:13:00.541Z,102166.72
2023-01-22T09:15:27.842Z,102167.59
2023-01-22T09:17:59.038Z,102167.56
2023-01-22T09:20:26.157Z,102168.47
2023-01-22T09:22:52.902Z,102170.22
2023-01-22T09:25:22.475Z,102169.34
2023-01-22T09:27:53.432Z,102171.09
2023-01-22T09:30:32.345Z,102168.47
2023-01-22T09:32:59.278Z,102166.72
2023-01-22T09:35:29.351Z,102160.63
2023-01-22T09:38:02.033Z,102166.72
2023-01-22T09:40:36.124Z,102171.09
2023-01-22T09:43:20.687Z,102178.94
2023-01-22T09:46:27.445Z,102176.31
2023-01-22T09:48:57.831Z,102181.53
2023-01-22T09:51:28.235Z,102186.78
2023-01-22T09:54:36.570Z,102179.78
2023-01-22T09:57:19.895Z,102180.69
2023-01-22T10:02:53.220Z,102184.16
2023-01-22T10:05:24.652Z,102183.28
2023-01-22T10:08:01.324Z,102184.16
2023-01-22T10:10:33.502Z,102179.75
2023-01-22T10:13:25.713Z,102192.84
2023-01-22T10:15:56.939Z,102183.28
2023-01-22T10:18:46.536Z,102178.91
2023-01-22T10:21:24.655Z,102188.53
2023-01-22T10:23:52.295Z,102176.28
2023-01-22T10:26:29.451Z,102178.88
2023-01-22T10:28:58.647Z,102188.50
2023-01-22T10:31:35.570Z,102178.03
2023-01-22T10:34:05.361Z,102184.13
2023-01-22T10:36:32.403Z,102180.66
2023-01-22T10:39:05.885Z,102185.03
2023-01-22T10:41:37.982Z,102184.19
2023-01-22T10:44:16.910Z,102178.91
2023-01-22T10:46:45.091Z,102183.28
2023-01-22T10:49:17.302Z,102181.53
2023-01-22T10:51:55.821Z,102176.31
2023-01-22T10:54:34.320Z,102179.78
2023-01-22T10:57:25.658Z,102185.00
2023-01-22T10:59:58.876Z,102189.38
2023-01-22T11:02:26.588Z,102191.16
2023-01-22T11:04:53.381Z,102187.63
2023-01-22T11:07:20.103Z,102194.63
2023-01-22T11:09:51.242Z,102196.34
2023-01-22T11:12:22.771Z,102182.38
2023-01-22T11:15:00.021Z,102190.25
2023-01-22T11:17:34.731Z,102190.28
2023-01-22T11:20:24.748Z,102190.31
2023-01-22T11:23:11.378Z,102198.13
2023-01-22T11:25:46.293Z,102192.00
2023-01-22T11:28:42.610Z,102189.38
2023-01-22T11:31:22.332Z,102180.66
2023-01-22T11:33:57.097Z,102180.66
2023-01-22T11:36:33.674Z,102173.69
2023-01-22T11:39:10.424Z,102178.06
2023-01-22T11:42:11.357Z,102178.06
2023-01-22T11:44:53.386Z,102175.47
2023-01-22T11:47:26.312Z,102179.84
2023-01-22T11:50:01.709Z,102181.59
2023-01-22T11:53:00.862Z,102188.56
2023-01-22T11:56:01.042Z,102192.94
2023-01-22T11:58:50.019Z,102196.41
2023-01-22T12:01:47.280Z,102188.56
2023-01-22T12:04:37.408Z,102182.41
2023-01-22T12:07:16.664Z,102192.91
2023-01-22T12:10:30.222Z,102185.06
2023-01-22T12:13:27.018Z,102189.44
2023-01-22T12:16:12.676Z,102188.56
2023-01-22T12:18:50.097Z,102188.53
2023-01-22T12:21:29.426Z,102193.78
2023-01-22T12:24:06.127Z,102191.13
2023-01-22T12:26:36.856Z,102188.50
2023-01-22T12:29:12.887Z,102187.63
2023-01-22T12:32:01.398Z,102187.66
2023-01-22T12:34:48.215Z,102175.41
2023-01-22T12:37:18.205Z,102185.88
2023-01-22T12:40:10.360Z,102193.72
2023-01-22T12:42:43.212Z,102186.72
2023-01-22T12:45:41.042Z,102191.97
2023-01-22T12:48:35.921Z,102190.25
2023-01-22T12:51:02.916Z,102188.53
2023-01-22T12:53:37.874Z,102192.91
2023-01-22T12:56:12.034Z,102191.19
2023-01-22T12:58:40.684Z,102189.41
2023-01-22T13:01:23.656Z,102185.94
2023-01-22T13:03:59.800Z,102187.66
2023-01-22T13:06:32.829Z,102192.03
2023-01-22T13:09:00.017Z,102192.91
2023-01-22T13:11:41.491Z,102194.66
2023-01-22T13:14:28.733Z,102191.19
2023-01-22T13:16:57.817Z,102199.91
2023-01-22T13:19:42.530Z,102195.50
2023-01-22T13:22:22.226Z,102196.41
2023-01-22T13:24:54.377Z,102199.03
2023-01-22T13:27:29.858Z,102207.75
2023-01-22T13:30:15.416Z,102202.50
2023-01-22T13:32:42.244Z,102195.50
2023-01-22T13:35:12.761Z,102205.16
2023-01-22T13:37:41.887Z,102199.88
2023-01-22T13:40:16.984Z,102202.53
2023-01-22T13:42:45.604Z,102195.53
2023-01-22T13:45:20.116Z,102200.78
2023-01-22T13:47:46.784Z,102189.44
2023-01-22T13:50:25.581Z,102206.00
2023-01-22T13:52:53.141Z,102199.06
2023-01-22T13:55:22.231Z,102206.91
2023-01-22T13:57:55.789Z,102208.63
2023-01-22T14:00:32.036Z,102201.63
2023-01-22T14:03:02.808Z,102209.47
2023-01-22T14:05:33.724Z,102201.66
2023-01-22T14:08:09.913Z,102206.03
2023-01-22T14:10:37.365Z,102202.53
2023-01-22T14:13:11.050Z,102206.03
2023-01-22T14:15:39.088Z,102199.03
2023-01-22T14:18:07.277Z,102211.28
2023-01-22T14:20:38.595Z,102214.75
2023-01-22T14:23:05.329Z,102212.13
2023-01-22T14:25:32.014Z,102215.63
2023-01-22T14:28:01.926Z,102220.88
2023-01-22T14:30:28.667Z,102227.88
2023-01-22T14:32:56.011Z,102226.97
2023-01-22T14:35:25.351Z,102229.59
2023-01-22T14:37:53.765Z,102229.59
2023-01-22T14:40:23.095Z,102225.25
2023-01-22T14:42:50.345Z,102226.13
2023-01-22T14:45:18.494Z,102228.72
2023-01-22T14:47:49.460Z,102240.09
2023-01-22T14:50:19.799Z,102235.72
2023-01-22T14:52:47.122Z,102232.22
2023-01-22T14:55:14.532Z,102240.09
2023-01-22T14:57:41.299Z,102233.97
2023-01-22T15:00:08.753Z,102240.09
2023-01-22T15:02:40.292Z,102236.59
2023-01-22T15:05:08.071Z,102233.97
2023-01-22T15:07:35.562Z,102238.34
2023-01-22T15:10:04.293Z,102235.72
2023-01-22T15:12:34.014Z,102235.72
2023-01-22T15:15:00.996Z,102233.97
2023-01-22T15:17:28.113Z,102233.97
2023-01-22T15:19:54.985Z,102233.97
2023-01-22T15:22:21.703Z,102243.56
2023-01-22T15:24:48.703Z,102245.31
2023-01-22T15:27:18.781Z,102251.41
2023-01-22T15:29:46.506Z,102247.06
2023-01-22T15:32:13.897Z,102253.19
2023-01-22T15:34:40.652Z,102256.66
2023-01-22T15:37:07.484Z,102263.66
2023-01-22T15:39:34.716Z,102266.28
2023-01-22T15:42:01.704Z,102270.66
2023-01-22T15:44:28.379Z,102274.13
2023-01-22T15:46:58.953Z,102275.00
2023-01-22T15:49:25.720Z,102281.13
2023-01-22T15:51:53.229Z,102275.00
2023-01-22T15:54:20.216Z,102278.50
2023-01-22T15:56:47.111Z,102288.13
2023-01-22T15:59:14.054Z,102289.00
2023-01-22T16:01:41.536Z,102286.38
2023-01-22T16:04:09.903Z,102285.50
2023-01-22T16:06:37.050Z,102288.13
2023-01-22T16:09:07.894Z,102291.59
2023-01-22T16:11:35.035Z,102279.38
2023-01-22T16:14:04.441Z,102283.72
2023-01-22T16:16:36.815Z,102294.25
2023-01-22T16:19:06.679Z,102282.88
2023-01-22T16:21:33.639Z,102299.47
2023-01-22T16:24:01.200Z,102293.34
2023-01-22T16:26:30.679Z,102291.59
2023-01-22T16:29:00.384Z,102301.22
2023-01-22T16:31:29.978Z,102305.56
2023-01-22T16:34:01.343Z,102300.34
2023-01-22T16:36:29.842Z,102311.69
2023-01-22T16:38:56.661Z,102303.84
2023-01-22T16:41:28.309Z,102316.06
2023-01-22T16:44:09.351Z,102316.09
2023-01-22T16:46:39.047Z,102309.06
2023-01-22T16:49:28.332Z,102322.19
2023-01-22T16:51:57.235Z,102323.94
2023-01-22T16:54:29.792Z,102323.94
2023-01-22T16:57:01.499Z,102331.78
2023-01-22T16:59:32.667Z,102331.81
2023-01-22T17:02:01.455Z,102329.19
2023-01-22T17:04:31.942Z,102342.28
2023-01-22T17:06:59.684Z,102337.03
2023-01-22T17:09:29.097Z,102337.03
2023-01-22T17:11:58.382Z,102342.28
2023-01-22T17:14:29.940Z,102340.53
2023-01-22T17:16:58.164Z,102344.03
2023-01-22T17:19:27.934Z,102344.91
2023-01-22T17:21:59.688Z,102345.78
2023-01-22T17:24:27.745Z,102351.03
2023-01-22T17:26:56.672Z,102348.41
2023-01-22T17:29:23.867Z,102350.16
2023-01-22T17:31:51.238Z,102354.50
2023-01-22T17:34:18.632Z,102357.13
2023-01-22T17:36:45.776Z,102356.28
2023-01-22T17:39:26.725Z,102357.16
2023-01-22T17:42:12.172Z,102359.75
2023-01-22T17:44:40.892Z,102368.47
2023-01-22T17:47:08.960Z,102363.25
2023-01-22T17:49:36.664Z,102358.88
2023-01-22T17:52:04.566Z,102378.97
2023-01-22T17:54:31.445Z,102371.97
2023-01-22T17:57:04.206Z,102373.72
2023-01-22T17:59:32.087Z,102369.34
2023-01-22T18:02:00.293Z,102373.75
2023-01-22T18:04:27.623Z,102365.88
2023-01-22T18:06:56.671Z,102373.75
2023-01-22T18:09:23.975Z,102376.38
2023-01-22T18:11:50.688Z,102391.22
2023-01-22T18:14:32.486Z,102387.72
2023-01-22T18:17:02.827Z,102394.72
2023-01-22T18:19:30.125Z,102398.22
2023-01-22T18:21:57.298Z,102394.72
2023-01-22T18:24:26.573Z,102399.09
2023-01-22T18:26:55.532Z,102403.47
2023-01-22T18:29:22.639Z,102399.97
2023-01-22T18:31:49.796Z,102401.72
2023-01-22T18:34:16.615Z,102393.84
2023-01-22T18:36:44.278Z,102400.84
2023-01-22T18:39:15.430Z,102392.97
2023-01-22T18:41:44.044Z,102400.84
2023-01-22T18:44:14.967Z,102396.44
2023-01-22T18:46:45.281Z,102402.56
2023-01-22T18:49:18.866Z,102411.28
2023-01-22T18:51:49.197Z,102413.91
2023-01-22T18:54:16.814Z,102416.50
2023-01-22T18:56:46.731Z,102413.91
2023-01-22T18:59:13.947Z,102419.13
2023-01-22T19:01:41.201Z,102413.88
2023-01-22T19:04:10.157Z,102422.63
2023-01-22T19:06:38.481Z,102428.72
2023-01-22T19:09:07.170Z,102423.50
2023-01-22T19:11:38.211Z,102418.22
2023-01-22T19:14:21.572Z,102424.31
2023-01-22T19:16:53.329Z,102429.56
2023-01-22T19:19:21.823Z,102435.66
2023-01-22T19:21:52.494Z,102430.41
2023-01-22T19:24:24.496Z,102434.81
2023-01-22T19:26:52.388Z,102431.28
2023-01-22T19:29:19.480Z,102436.53
2023-01-22T19:31:48.572Z,102434.78
2023-01-22T19:34:23.517Z,102443.50
2023-01-22T19:36:52.887Z,102424.28
2023-01-22T19:39:20.432Z,102433.00
2023-01-22T19:41:47.975Z,102438.25
2023-01-22T19:44:18.372Z,102427.78
2023-01-22T19:46:45.620Z,102425.97
2023-01-22T19:49:13.473Z,102432.97
2023-01-22T19:51:40.831Z,102434.72
2023-01-22T19:54:09.059Z,102442.59
2023-01-22T19:56:37.569Z,102443.44
2023-01-22T19:59:06.719Z,102440.81
2023-01-22T20:01:35.109Z,102432.06
2023-01-22T20:04:02.007Z,102444.31
2023-01-22T20:06:29.785Z,102446.03
2023-01-22T20:08:57.064Z,102442.50
2023-01-22T20:11:24.822Z,102446.88
2023-01-22T20:13:51.850Z,102453.88
2023-01-22T20:16:24.915Z,102459.97
2023-01-22T20:18:53.451Z,102459.13
2023-01-22T20:21:21.401Z,102459.09
2023-01-22T20:23:49.157Z,102458.22
2023-01-22T20:26:17.916Z,102459.13
2023-01-22T20:28:45.523Z,102466.97
2023-01-22T20:31:14.797Z,102476.59
2023-01-22T20:33:41.709Z,102473.19
2023-01-22T20:36:10.544Z,102469.75
2023-01-22T20:38:37.650Z,102468.88
2023-01-22T20:41:09.403Z,102464.53
2023-01-22T20:43:37.921Z,102468.03
2023-01-22T20:46:18.744Z,102461.06
2023-01-22T20:48:49.205Z,102468.94
2023-01-22T20:51:19.248Z,102475.91
2023-01-22T20:53:47.007Z,102468.06
2023-01-22T20:56:17.641Z,102471.56
2023-01-22T20:58:44.666Z,102481.16
2023-01-22T21:01:20.273Z,102486.44
2023-01-22T21:03:47.931Z,102496.91
2023-01-22T21:06:16.647Z,102495.19
2023-01-22T21:08:44.300Z,102499.56
2023-01-22T21:11:13.177Z,102507.44
2023-01-22T21:13:43.004Z,102504.81
2023-01-22T21:16:13.540Z,102512.63
2023-01-22T21:18:43.831Z,102505.66
2023-01-22T21:21:13.794Z,102514.41
2023-01-22T21:23:41.450Z,102511.78
2023-01-22T21:26:11.743Z,102521.41
2023-01-22T21:28:39.891Z,102511.78
2023-01-22T21:31:08.750Z,102514.41
2023-01-22T21:33:38.893Z,102509.16
2023-01-22T21:36:07.754Z,102508.28
2023-01-22T21:38:35.356Z,102524.06
2023-01-22T21:41:04.369Z,102523.16
2023-01-22T21:43:51.957Z,102517.91
2023-01-22T21:46:27.600Z,102517.06
2023-01-22T21:48:58.294Z,102515.28
2023-01-22T21:51:29.300Z,102515.25
2023-01-22T21:53:56.542Z,102520.44
2023-01-22T21:56:23.743Z,102513.47
2023-01-22T21:58:50.853Z,102508.19
2023-01-22T22:01:21.399Z,102516.94
2023-01-22T22:03:51.521Z,102520.44
2023-01-22T22:06:18.229Z,102520.44
2023-01-22T22:08:45.211Z,102522.19
2023-01-22T22:11:13.527Z,102523.91
2023-01-22T22:13:41.166Z,102524.78
2023-01-22T22:16:08.958Z,102519.53
2023-01-22T22:18:36.203Z,102526.50
2023-01-22T22:21:05.434Z,102520.38
2023-01-22T22:23:32.599Z,102531.78
2023-01-22T22:26:02.976Z,102537.00
2023-01-22T22:28:30.206Z,102549.28
2023-01-22T22:31:11.980Z,102545.00
2023-01-22T22:33:43.004Z,102547.66
2023-01-22T22:36:10.870Z,102547.63
2023-01-22T22:38:38.094Z,102549.41
2023-01-22T22:41:18.423Z,102549.41
2023-01-22T22:43:46.776Z,102556.47
2023-01-22T22:46:16.672Z,102561.69
2023-01-22T22:48:44.330Z,102559.09
2023-01-22T22:51:16.214Z,102559.94
2023-01-22T22:53:43.487Z,102552.91
2023-01-22T22:56:11.153Z,102555.47
2023-01-22T22:58:38.452Z,102554.56
2023-01-22T23:01:10.027Z,102556.34
2023-01-22T23:03:37.639Z,102552.81
2023-01-22T23:06:13.759Z,102559.84
2023-01-22T23:08:42.485Z,102564.28
2023-01-22T23:11:14.149Z,102560.78
2023-01-22T23:13:44.307Z,102570.44
2023-01-22T23:16:13.673Z,102572.13
2023-01-22T23:18:40.533Z,102570.41
2023-01-22T23:21:12.908Z,102581.78
2023-01-22T23:23:40.069Z,102574.81
2023-01-22T23:26:18.089Z,102582.69
2023-01-22T23:28:48.023Z,102594.09
2023-01-22T23:31:16.811Z,102603.72
2023-01-22T23:33:44.069Z,102608.09
2023-01-22T23:36:13.240Z,102603.72
2023-01-22T23:38:46.064Z,102609.84
2023-01-22T23:41:14.884Z,102614.13
2023-01-22T23:43:42.477Z,102614.09
2023-01-22T23:46:11.123Z,102616.75
2023-01-22T23:48:38.134Z,102619.41
2023-01-22T23:51:06.721Z,102617.63
2023-01-22T23:53:36.731Z,102617.63
2023-01-22T23:56:05.251Z,102620.22
2023-01-22T23:58:32.205Z,102625.50
